Time;durP1;ratioP1;P1;durP2;ratioP2;P2;SDS_P1;SDS_P2;PMS_P1;PMS_P2;Temp;Humidity;BMP_temperature;BMP_pressure;BME280_temperature;BME280_humidity;BME280_pressure;Samples;Min_cycle;Max_cycle;Signal;HPM_P1;HPM_P2
2022/04/29 00:00:01;;;;;;;0.82;0.82;;;;;;;1.80;62.75;98573.63;5052499;28;20057;-66
2022/04/29 00:02:27;;;;;;;2.30;1.50;;;;;;;1.82;62.79;98581.56;5053093;28;20056;-67
2022/04/29 00:04:52;;;;;;;1.23;1.17;;;;;;;1.83;62.80;98588.66;5052511;28;20037;-65
2022/04/29 00:07:18;;;;;;;3.53;0.68;;;;;;;1.85;62.55;98581.19;5052743;28;20120;-65
2022/04/29 00:09:44;;;;;;;1.40;0.65;;;;;;;1.82;62.57;98581.56;5052705;28;20040;-65
2022/04/29 00:12:10;;;;;;;1.00;0.77;;;;;;;1.86;62.60;98582.88;5052943;28;20479;-66
2022/04/29 00:14:35;;;;;;;0.65;0.65;;;;;;;1.91;62.36;98594.00;5052724;28;20037;-65
2022/04/29 00:17:02;;;;;;;2.17;0.50;;;;;;;1.93;62.56;98586.53;5034629;28;20052;-64
2022/04/29 00:19:28;;;;;;;1.80;1.50;;;;;;;1.94;62.34;98588.19;5053075;28;20506;-64
2022/04/29 00:21:54;;;;;;;1.55;1.45;;;;;;;1.98;62.40;98588.69;5052746;28;20049;-65
2022/04/29 00:24:20;;;;;;;1.48;1.02;;;;;;;2.01;62.05;98591.84;5052660;28;20041;-64
2022/04/29 00:26:45;;;;;;;0.70;0.70;;;;;;;1.95;62.15;98589.06;5052320;28;20496;-64
2022/04/29 00:29:11;;;;;;;0.65;0.65;;;;;;;1.87;62.63;98595.38;5052348;28;20094;-63
2022/04/29 00:31:38;;;;;;;0.82;0.82;;;;;;;1.81;62.61;98585.28;5052528;28;20080;-65
2022/04/29 00:34:04;;;;;;;2.15;0.43;;;;;;;1.82;62.67;98595.94;5051996;28;20041;-63
2022/04/29 00:36:30;;;;;;;2.25;0.60;;;;;;;1.88;62.38;98592.47;5052069;28;20048;-62
2022/04/29 00:38:55;;;;;;;1.48;1.15;;;;;;;1.89;62.41;98593.34;5052318;28;20094;-63
2022/04/29 00:41:23;;;;;;;0.88;0.88;;;;;;;1.90;62.43;98595.03;5052444;28;20068;-63
2022/04/29 00:43:59;;;;;;;0.73;0.73;;;;;;;1.95;62.08;98600.72;5052086;28;20036;-62
2022/04/29 00:46:25;;;;;;;0.32;0.32;;;;;;;1.95;62.02;98608.84;5051707;28;20094;-63
2022/04/29 00:48:51;;;;;;;0.57;0.57;;;;;;;1.88;62.18;98614.13;5052404;28;20513;-63
2022/04/29 00:51:16;;;;;;;0.50;0.50;;;;;;;1.81;62.51;98610.50;5052452;28;20143;-64
2022/04/29 00:53:43;;;;;;;3.65;1.58;;;;;;;1.83;62.56;98613.88;5052128;28;20562;-63
2022/04/29 00:56:11;;;;;;;0.30;0.30;;;;;;;1.83;62.37;98626.56;5051618;28;20040;-63
2022/04/29 00:58:46;;;;;;;0.43;0.43;;;;;;;1.86;62.28;98632.44;5051918;28;20074;-65
2022/04/29 01:01:14;;;;;;;0.25;0.25;;;;;;;1.87;62.14;98633.28;5052314;28;20044;-63
2022/04/29 01:03:42;;;;;;;0.47;0.47;;;;;;;1.86;62.27;98642.44;5051804;28;20033;-64
2022/04/29 01:06:08;;;;;;;0.70;0.70;;;;;;;1.87;62.17;98644.09;5052138;28;20447;-64
2022/04/29 01:08:34;;;;;;;0.43;0.43;;;;;;;1.84;62.19;98647.19;5052201;28;20037;-63
2022/04/29 01:10:59;;;;;;;0.50;0.50;;;;;;;1.83;62.10;98653.66;5051658;28;20049;-62
2022/04/29 01:13:26;;;;;;;2.15;0.77;;;;;;;1.87;62.00;98653.09;5052068;28;20178;-63
2022/04/29 01:15:56;;;;;;;2.63;0.93;;;;;;;1.87;61.84;98663.06;5052343;28;20123;-63
2022/04/29 01:18:23;;;;;;;0.68;0.32;;;;;;;1.78;61.91;98661.47;5067600;28;20052;-64
2022/04/29 01:21:04;;;;;;;0.45;0.45;;;;;;;1.75;61.97;98665.38;5051935;28;20504;-63
2022/04/29 01:23:29;;;;;;;0.30;0.30;;;;;;;1.74;61.93;98667.25;5050830;28;20053;-63
2022/04/29 01:25:55;;;;;;;0.30;0.30;;;;;;;1.77;61.72;98670.59;5052118;28;20052;-64
2022/04/29 01:28:28;;;;;;;0.20;0.20;;;;;;;1.82;61.35;98677.16;5051750;28;20049;-63
2022/04/29 01:30:57;;;;;;;0.20;0.20;;;;;;;1.76;61.50;98667.06;5052454;28;20056;-63
2022/04/29 01:33:25;;;;;;;0.20;0.20;;;;;;;1.75;61.38;98668.94;5050464;28;20500;-62
2022/04/29 01:35:51;;;;;;;0.22;0.22;;;;;;;1.79;61.28;98677.50;5050579;28;20187;-62
2022/04/29 01:38:18;;;;;;;0.20;0.20;;;;;;;1.82;61.07;98681.72;5052122;28;20159;-62
2022/04/29 01:40:43;;;;;;;0.30;0.30;;;;;;;1.74;61.17;98686.19;5051640;28;20037;-64
2022/04/29 01:43:09;;;;;;;0.43;0.43;;;;;;;1.69;61.25;98691.31;5051388;28;20064;-63
2022/04/29 01:45:36;;;;;;;0.30;0.30;;;;;;;1.69;61.37;98688.59;5055429;28;20524;-62
2022/04/29 01:48:02;;;;;;;0.90;0.40;;;;;;;1.69;61.01;98682.34;5058827;28;20045;-65
2022/04/29 01:50:28;;;;;;;0.20;0.20;;;;;;;1.81;60.88;98699.00;5058239;28;20568;-74
2022/04/29 01:52:53;;;;;;;0.50;0.50;;;;;;;1.84;60.83;98702.19;5057272;28;20091;-63
2022/04/29 01:55:19;;;;;;;3.10;1.00;;;;;;;1.87;60.72;98709.09;5054481;28;20045;-62
2022/04/29 01:57:49;;;;;;;0.45;0.45;;;;;;;1.97;60.45;98706.97;5054426;28;20045;-63
2022/04/29 02:00:15;;;;;;;0.57;0.57;;;;;;;2.05;60.24;98709.63;5054665;28;20049;-63
2022/04/29 02:02:41;;;;;;;0.40;0.40;;;;;;;2.05;60.24;98716.91;5054471;28;20052;-65
2022/04/29 02:05:07;;;;;;;0.45;0.45;;;;;;;1.99;60.45;98723.91;5050638;28;20032;-64
2022/04/29 02:07:33;;;;;;;2.08;1.23;;;;;;;1.96;60.45;98724.28;5052435;28;20483;-64
2022/04/29 02:09:58;;;;;;;0.50;0.50;;;;;;;1.89;60.57;98734.97;5052773;28;20080;-65
2022/04/29 02:12:24;;;;;;;1.10;0.50;;;;;;;1.90;60.58;98730.41;5053730;28;20045;-64
2022/04/29 02:14:50;;;;;;;0.30;0.30;;;;;;;1.99;60.21;98729.31;5062170;28;20044;-64
2022/04/29 02:17:16;;;;;;;0.40;0.40;;;;;;;2.25;59.60;98737.06;5065629;28;20502;-63
2022/04/29 02:19:43;;;;;;;0.45;0.45;;;;;;;2.64;58.74;98743.28;5074921;28;20043;-63
2022/04/29 02:22:09;;;;;;;1.35;0.60;;;;;;;2.95;58.01;98734.97;5074928;28;20052;-64
2022/04/29 02:24:35;;;;;;;0.30;0.30;;;;;;;3.19;57.45;98727.56;5075293;28;20051;-66
2022/04/29 02:27:03;;;;;;;0.50;0.50;;;;;;;4.20;55.36;98737.63;5074593;28;20097;-64
2022/04/29 02:29:28;;;;;;;0.30;0.30;;;;;;;6.27;51.39;98738.63;5074694;28;20040;-63
2022/04/29 02:31:58;;;;;;;0.50;0.50;;;;;;;6.58;50.88;98734.44;5074888;28;20120;-64
2022/04/29 02:34:24;;;;;;;0.60;0.60;;;;;;;6.23;51.90;98737.38;5074254;28;20044;-64
2022/04/29 02:36:50;;;;;;;0.20;0.20;;;;;;;5.76;53.06;98739.97;5074760;28;20045;-64
2022/04/29 02:39:16;;;;;;;0.25;0.25;;;;;;;6.04;52.92;98749.91;5074675;28;20051;-64
2022/04/29 02:41:41;;;;;;;0.22;0.22;;;;;;;6.63;51.89;98745.53;5074976;28;20044;-65
2022/04/29 02:44:07;;;;;;;0.20;0.20;;;;;;;8.83;48.16;98737.28;5074592;28;20044;-64
2022/04/29 02:46:33;;;;;;;0.25;0.25;;;;;;;11.37;43.88;98732.78;5074255;28;20135;-60
2022/04/29 02:48:59;;;;;;;0.28;0.28;;;;;;;13.02;42.12;98736.63;5073261;28;20040;-63
2022/04/29 02:51:25;;;;;;;0.40;0.40;;;;;;;14.54;40.50;98728.75;5070416;28;20047;-64
2022/04/29 02:53:51;;;;;;;1.75;0.32;;;;;;;15.91;39.34;98731.84;5072605;28;20079;-64
2022/04/29 02:56:18;;;;;;;0.65;0.65;;;;;;;16.04;40.24;98731.34;5073970;28;20086;-66
2022/04/29 02:58:44;;;;;;;0.98;0.93;;;;;;;16.22;40.53;98724.44;5073227;28;20122;-65
2022/04/29 03:01:10;;;;;;;0.20;0.20;;;;;;;15.63;42.05;98736.69;5073822;28;20036;-61
2022/04/29 03:03:35;;;;;;;0.75;0.50;;;;;;;15.76;42.08;98747.28;5073195;28;20491;-64
2022/04/29 03:06:01;;;;;;;0.45;0.45;;;;;;;17.12;40.40;98734.22;5074065;28;20068;-63
2022/04/29 03:08:27;;;;;;;0.30;0.30;;;;;;;17.36;40.20;98739.16;5073613;28;20151;-61
2022/04/29 03:10:53;;;;;;;0.20;0.20;;;;;;;16.46;41.94;98738.63;5067890;28;20463;-63
2022/04/29 03:13:18;;;;;;;0.20;0.20;;;;;;;17.48;40.70;98741.63;5071792;28;20048;-66
2022/04/29 03:15:44;;;;;;;0.20;0.20;;;;;;;17.71;40.45;98740.16;5073670;28;20043;-64
2022/04/29 03:18:22;;;;;;;0.13;0.13;;;;;;;18.32;39.96;98741.81;5073271;28;20041;-62
2022/04/29 03:20:56;;;;;;;0.10;0.10;;;;;;;17.28;41.82;98742.50;5073975;28;20037;-65
2022/04/29 03:23:23;;;;;;;0.20;0.20;;;;;;;15.50;44.99;98756.56;5074134;28;20098;-62
2022/04/29 03:25:48;;;;;;;0.10;0.10;;;;;;;14.58;46.68;98756.72;5074035;28;20082;-62
2022/04/29 03:28:15;;;;;;;0.20;0.20;;;;;;;15.73;44.25;98761.66;5073609;28;20068;-65
2022/04/29 03:30:42;;;;;;;0.20;0.20;;;;;;;17.42;40.99;98764.97;5073723;28;20068;-63
2022/04/29 03:33:08;;;;;;;0.20;0.20;;;;;;;16.71;42.03;98756.41;5073282;28;20045;-62
2022/04/29 03:35:45;;;;;;;0.20;0.20;;;;;;;18.24;39.73;98761.91;5073288;28;20066;-64
2022/04/29 03:38:11;;;;;;;0.30;0.30;;;;;;;20.60;36.45;98767.00;5073672;28;20039;-65
2022/04/29 03:40:37;;;;;;;0.20;0.20;;;;;;;22.11;35.02;98749.22;5073623;28;20040;-64
2022/04/29 03:43:03;;;;;;;0.55;0.55;;;;;;;23.15;33.88;98751.31;5073476;28;20063;-64
2022/04/29 03:45:30;;;;;;;0.40;0.40;;;;;;;20.67;37.69;98760.22;5073720;28;20048;-63
2022/04/29 03:47:56;;;;;;;1.35;0.50;;;;;;;17.83;42.51;98756.50;5055448;28;20059;-64
2022/04/29 03:50:23;;;;;;;0.35;0.35;;;;;;;17.92;42.32;98773.41;5073414;28;20051;-64
2022/04/29 03:52:53;;;;;;;2.63;0.30;;;;;;;17.56;42.35;98765.19;5073532;28;20152;-64
2022/04/29 03:55:24;;;;;;;0.40;0.40;;;;;;;15.39;45.56;98773.09;5073044;28;20446;-63
2022/04/29 03:57:51;;;;;;;0.28;0.28;;;;;;;13.43;48.98;98775.00;5073129;28;20049;-62
2022/04/29 04:00:17;;;;;;;0.20;0.20;;;;;;;15.69;44.40;98779.91;5073084;28;20418;-65
2022/04/29 04:02:43;;;;;;;0.52;0.52;;;;;;;18.62;39.13;98778.03;5073254;28;20041;-63
2022/04/29 04:05:10;;;;;;;1.13;0.60;;;;;;;20.85;35.71;98773.34;5072777;28;20408;-63
2022/04/29 04:07:36;;;;;;;0.40;0.32;;;;;;;22.38;34.28;98765.97;5073281;28;20130;-64
2022/04/29 04:10:03;;;;;;;0.20;0.20;;;;;;;23.00;33.90;98770.13;5072850;28;20051;-65
2022/04/29 04:12:47;;;;;;;0.20;0.20;;;;;;;23.62;33.82;98757.31;5062664;28;20045;-63
2022/04/29 04:15:14;;;;;;;0.70;0.57;;;;;;;23.65;34.14;98769.88;5058559;28;20052;-65
2022/04/29 04:17:40;;;;;;;0.47;0.30;;;;;;;23.22;34.65;98771.28;5063364;28;20040;-64
2022/04/29 04:20:08;;;;;;;0.22;0.22;;;;;;;22.23;36.26;98777.47;5038801;28;20037;-63
2022/04/29 04:22:39;;;;;;;0.30;0.30;;;;;;;21.34;37.07;98785.88;5065858;28;20044;-64
2022/04/29 04:25:07;;;;;;;0.80;0.80;;;;;;;19.89;39.32;98796.66;5063031;28;20126;-64
2022/04/29 04:27:33;;;;;;;0.43;0.43;;;;;;;21.06;37.44;98793.38;5056882;28;20134;-65
2022/04/29 04:29:59;;;;;;;0.10;0.10;;;;;;;22.80;35.10;98782.63;5064658;28;20098;-63
2022/04/29 04:32:26;;;;;;;0.10;0.10;;;;;;;24.48;32.66;98789.63;5062443;28;20469;-63
2022/04/29 04:34:57;;;;;;;0.98;0.40;;;;;;;25.77;31.24;98776.94;5060037;28;20568;-63
2022/04/29 04:37:27;;;;;;;0.95;0.30;;;;;;;24.04;33.68;98771.88;5058335;28;20044;-66
2022/04/29 04:39:54;;;;;;;0.20;0.20;;;;;;;21.73;37.02;98771.81;5058254;28;20060;-67
2022/04/29 04:42:21;;;;;;;0.30;0.20;;;;;;;19.58;39.97;98780.28;5054792;28;20041;-62
2022/04/29 04:44:49;;;;;;;3.10;0.20;;;;;;;21.30;36.80;98784.88;5058158;28;20071;-64
2022/04/29 04:47:15;;;;;;;0.10;0.10;;;;;;;23.31;34.16;98783.38;5058114;28;20132;-65
2022/04/29 04:49:41;;;;;;;0.20;0.20;;;;;;;25.18;31.95;98791.63;5063763;28;20044;-65
2022/04/29 04:52:08;;;;;;;0.17;0.17;;;;;;;25.51;31.52;98789.09;5059538;28;20377;-63
2022/04/29 04:54:34;;;;;;;0.57;0.57;;;;;;;25.98;31.21;98793.88;5060126;28;20414;-64
2022/04/29 04:57:00;;;;;;;1.20;0.50;;;;;;;24.44;33.21;98791.41;5059638;28;20041;-63
2022/04/29 04:59:26;;;;;;;0.30;0.30;;;;;;;24.02;33.90;98801.38;5059904;28;20059;-65
2022/04/29 05:01:53;;;;;;;0.38;0.38;;;;;;;22.38;35.40;98784.75;5059802;28;20084;-64
2022/04/29 05:04:20;;;;;;;0.32;0.32;;;;;;;20.26;38.42;98800.69;5054303;28;20044;-63
2022/04/29 05:06:52;;;;;;;0.35;0.35;;;;;;;18.14;41.04;98790.56;5058328;28;20046;-66
2022/04/29 05:09:18;;;;;;;1.50;1.05;;;;;;;16.09;43.94;98805.31;5063347;28;20063;-65
2022/04/29 05:11:44;;;;;;;1.15;1.05;;;;;;;14.41;45.83;98820.34;5060114;28;20495;-64
2022/04/29 05:14:09;;;;;;;0.17;0.17;;;;;;;13.20;47.01;98815.44;5060390;28;20418;-66
2022/04/29 05:16:35;;;;;;;0.73;0.73;;;;;;;12.22;47.69;98827.53;5062178;28;20037;-63
2022/04/29 05:19:01;;;;;;;0.20;0.20;;;;;;;11.66;47.79;98834.56;5059439;28;20123;-64
2022/04/29 05:21:28;;;;;;;0.10;0.10;;;;;;;11.39;47.06;98824.06;5057895;28;20037;-64
2022/04/29 05:23:54;;;;;;;1.85;0.60;;;;;;;11.13;46.38;98823.50;5051686;28;20041;-64
2022/04/29 05:26:19;;;;;;;0.35;0.35;;;;;;;11.02;45.62;98832.56;5065529;28;20041;-64
2022/04/29 05:28:45;;;;;;;0.60;0.60;;;;;;;10.95;45.04;98831.84;5065886;28;20052;-63
2022/04/29 05:31:11;;;;;;;2.15;0.70;;;;;;;10.98;44.30;98825.84;5064966;28;20086;-64
2022/04/29 05:33:38;;;;;;;0.55;0.50;;;;;;;10.63;44.05;98822.00;5070372;28;20036;-65
2022/04/29 05:36:07;;;;;;;0.40;0.40;;;;;;;10.19;44.33;98829.56;5061499;28;20052;-64
2022/04/29 05:44:02;;;;;;;0.32;0.22;;;;;;;8.82;44.97;98839.69;5065362;28;20055;-63
2022/04/29 05:46:28;;;;;;;0.30;0.30;;;;;;;8.51;44.91;98835.03;5064880;28;20048;-64
2022/04/29 05:48:53;;;;;;;0.32;0.32;;;;;;;8.18;44.92;98844.25;5069344;28;20080;-63
2022/04/29 05:51:19;;;;;;;0.30;0.30;;;;;;;8.08;44.70;98839.25;5070023;28;20045;-64
2022/04/29 05:53:45;;;;;;;0.73;0.73;;;;;;;8.08;44.23;98844.72;5073444;28;20036;-63
2022/04/29 05:56:11;;;;;;;0.25;0.25;;;;;;;7.91;43.99;98844.41;5070074;28;20048;-64
2022/04/29 05:58:36;;;;;;;1.65;0.40;;;;;;;7.56;44.27;98844.72;5064307;28;20053;-64
2022/04/29 06:01:05;;;;;;;0.20;0.20;;;;;;;7.09;44.72;98847.53;5057413;28;20037;-64
2022/04/29 06:03:31;;;;;;;2.83;0.75;;;;;;;6.86;44.60;98855.31;5067844;28;20044;-65
2022/04/29 06:05:57;;;;;;;0.20;0.20;;;;;;;6.71;44.64;98852.78;5065177;28;20063;-63
2022/04/29 06:08:23;;;;;;;0.20;0.20;;;;;;;6.63;44.29;98845.66;5065634;28;20503;-64
2022/04/29 06:10:48;;;;;;;0.20;0.20;;;;;;;6.54;44.11;98845.03;5062165;28;20044;-64
2022/04/29 06:13:14;;;;;;;0.45;0.45;;;;;;;6.28;44.11;98841.19;5059078;28;20571;-65
2022/04/29 06:15:40;;;;;;;0.50;0.50;;;;;;;6.06;44.01;98851.41;5060434;28;20531;-63
2022/04/29 06:18:06;;;;;;;0.63;0.40;;;;;;;5.92;44.06;98847.78;5063616;28;20041;-65
2022/04/29 06:20:31;;;;;;;0.25;0.25;;;;;;;5.90;43.96;98849.88;5064072;28;20055;-64
2022/04/29 06:22:57;;;;;;;0.20;0.20;;;;;;;5.94;43.65;98853.84;5071829;28;20098;-63
2022/04/29 06:25:24;;;;;;;0.20;0.20;;;;;;;6.10;43.20;98847.22;5047829;28;20483;-64
2022/04/29 06:27:49;;;;;;;0.40;0.40;;;;;;;6.43;42.40;98837.44;5065715;28;20511;-65
2022/04/29 06:30:15;;;;;;;0.88;0.55;;;;;;;6.54;42.12;98842.28;5058721;28;20102;-64
2022/04/29 06:32:41;;;;;;;0.52;0.52;;;;;;;6.38;42.05;98848.97;5066025;28;20122;-63
2022/04/29 06:35:07;;;;;;;0.55;0.55;;;;;;;6.19;42.50;98844.31;5068548;28;20049;-69
2022/04/29 06:37:34;;;;;;;0.25;0.25;;;;;;;6.15;42.35;98843.88;5069568;28;20036;-64
2022/04/29 06:40:00;;;;;;;0.20;0.20;;;;;;;6.14;42.16;98847.66;5047653;28;20049;-66
2022/04/29 06:42:25;;;;;;;6.20;0.70;;;;;;;6.25;41.96;98843.50;5065133;28;20052;-64
2022/04/29 06:44:51;;;;;;;0.65;0.40;;;;;;;6.26;41.82;98837.84;5063661;28;20136;-66
2022/04/29 06:47:18;;;;;;;1.45;0.93;;;;;;;6.11;41.94;98843.47;5063247;28;20044;-64
2022/04/29 06:49:43;;;;;;;1.17;0.50;;;;;;;5.97;42.15;98850.72;5060342;28;20044;-65
2022/04/29 06:52:09;;;;;;;0.40;0.40;;;;;;;5.97;42.15;98841.72;5059892;28;20061;-64
2022/04/29 06:54:36;;;;;;;0.32;0.30;;;;;;;6.04;42.07;98837.16;5056427;28;20414;-63
2022/04/29 06:57:02;;;;;;;0.88;0.85;;;;;;;6.17;41.95;98836.34;5061212;28;20056;-64
2022/04/29 06:59:27;;;;;;;0.47;0.47;;;;;;;6.42;41.38;98838.47;5071712;28;20053;-64
2022/04/29 07:01:54;;;;;;;0.70;0.60;;;;;;;6.76;40.80;98848.41;5065487;28;20094;-64
2022/04/29 07:04:20;;;;;;;2.03;0.45;;;;;;;6.87;40.59;98844.19;5054281;28;20044;-62
2022/04/29 07:06:45;;;;;;;0.20;0.20;;;;;;;6.73;40.77;98850.69;5062749;28;20063;-64
2022/04/29 07:09:11;;;;;;;0.30;0.30;;;;;;;6.50;41.08;98846.47;5063086;28;20032;-64
2022/04/29 07:11:37;;;;;;;0.45;0.45;;;;;;;6.36;41.46;98856.53;5062747;28;20101;-64
2022/04/29 07:14:02;;;;;;;0.68;0.68;;;;;;;6.32;41.38;98860.72;5064748;28;20043;-64
2022/04/29 07:16:30;;;;;;;0.20;0.20;;;;;;;6.31;41.37;98854.41;5061532;28;20048;-65
2022/04/29 07:18:57;;;;;;;0.32;0.32;;;;;;;6.26;41.42;98856.91;5059883;28;20041;-63
2022/04/29 07:21:23;;;;;;;0.40;0.40;;;;;;;6.28;41.13;98849.34;5059702;28;20136;-63
2022/04/29 07:23:49;;;;;;;0.40;0.40;;;;;;;6.30;40.97;98860.91;5059273;28;20128;-65
2022/04/29 07:26:15;;;;;;;0.30;0.30;;;;;;;6.38;41.13;98856.31;5066999;28;20171;-64
2022/04/29 07:28:41;;;;;;;0.82;0.57;;;;;;;6.44;40.82;98850.03;5059668;28;20045;-64
2022/04/29 07:31:07;;;;;;;1.13;0.60;;;;;;;6.46;40.77;98856.13;5062891;28;20090;-62
2022/04/29 07:33:36;;;;;;;1.05;0.77;;;;;;;6.44;40.72;98850.03;5058527;28;20041;-64
2022/04/29 07:41:44;;;;;;;0.50;0.50;;;;;;;6.37;40.70;98849.19;5059155;28;20075;-64
2022/04/29 07:44:10;;;;;;;2.17;0.50;;;;;;;6.35;40.67;98843.94;5056748;28;20117;-63
2022/04/29 07:46:36;;;;;;;0.47;0.47;;;;;;;6.32;40.67;98839.72;5056568;28;20369;-64
2022/04/29 07:49:03;;;;;;;0.65;0.65;;;;;;;6.25;40.75;98817.06;5064850;28;20051;-64
2022/04/29 07:51:29;;;;;;;0.20;0.20;;;;;;;6.20;40.81;98838.66;5058960;28;20047;-65
2022/04/29 07:53:55;;;;;;;0.28;0.28;;;;;;;6.20;40.80;98830.47;5066109;28;20040;-63
2022/04/29 07:56:21;;;;;;;0.28;0.25;;;;;;;6.29;40.51;98837.41;5062025;28;20455;-63
2022/04/29 07:58:47;;;;;;;2.85;0.40;;;;;;;6.34;40.33;98833.22;5061926;28;20114;-65
2022/04/29 08:01:13;;;;;;;0.32;0.32;;;;;;;6.25;40.20;98832.59;5048816;28;20080;-62
2022/04/29 08:03:39;;;;;;;0.28;0.28;;;;;;;6.12;40.53;98831.53;5057371;28;20048;-64
2022/04/29 08:06:07;;;;;;;0.30;0.30;;;;;;;6.08;40.56;98826.66;5056229;28;20529;-63
2022/04/29 08:08:34;;;;;;;0.20;0.20;;;;;;;6.01;40.40;98829.38;5058537;28;20091;-65
2022/04/29 08:11:00;;;;;;;0.50;0.50;;;;;;;5.94;40.43;98832.03;5057648;28;20127;-63
2022/04/29 08:13:27;;;;;;;1.08;0.60;;;;;;;5.97;40.17;98836.28;5059126;28;20131;-65
2022/04/29 08:15:53;;;;;;;0.22;0.22;;;;;;;6.00;40.05;98835.88;5059525;28;20037;-64
2022/04/29 08:18:19;;;;;;;0.20;0.20;;;;;;;6.03;39.98;98842.81;5057490;28;20059;-64
2022/04/29 08:20:46;;;;;;;0.20;0.20;;;;;;;6.04;39.84;98847.22;5064862;28;20450;-63
2022/04/29 08:23:11;;;;;;;0.20;0.20;;;;;;;6.05;39.92;98840.69;5059258;28;20052;-64
2022/04/29 08:25:37;;;;;;;0.70;0.30;;;;;;;6.11;39.73;98842.59;5057668;28;20042;-63
2022/04/29 08:28:04;;;;;;;1.35;0.40;;;;;;;6.09;39.77;98847.44;5061169;28;20529;-64
2022/04/29 08:30:30;;;;;;;0.20;0.20;;;;;;;6.06;39.73;98845.94;5067910;28;20044;-65
2022/04/29 08:33:00;;;;;;;0.32;0.32;;;;;;;6.04;39.61;98848.06;5056307;28;20411;-64
2022/04/29 08:35:27;;;;;;;0.40;0.40;;;;;;;6.02;39.71;98832.94;5059032;28;20135;-63
2022/04/29 08:37:57;;;;;;;0.20;0.20;;;;;;;6.09;39.64;98842.81;5058831;28;20045;-65
2022/04/29 08:40:24;;;;;;;3.97;0.88;;;;;;;6.17;39.53;98840.94;5062854;28;20071;-64
2022/04/29 08:42:50;;;;;;;0.30;0.30;;;;;;;6.28;39.26;98838.47;5065922;28;20123;-64
2022/04/29 08:45:18;;;;;;;1.00;0.43;;;;;;;6.36;39.21;98831.13;5055712;28;20133;-65
2022/04/29 08:47:46;;;;;;;0.30;0.30;;;;;;;6.37;39.17;98841.00;5062675;28;20055;-64
2022/04/29 08:50:15;;;;;;;0.50;0.50;;;;;;;6.32;39.21;98836.16;5065910;28;20032;-64
2022/04/29 08:52:41;;;;;;;0.65;0.45;;;;;;;6.34;39.30;98846.88;5052406;28;20068;-64
2022/04/29 09:00:48;;;;;;;;;;;;;;;6.38;39.23;98850.88;5060923;28;20074;-63
2022/04/29 09:03:22;;;;;;;2.10;0.65;;;;;;;6.37;39.19;98843.72;5053795;28;19916;-66
2022/04/29 09:05:48;;;;;;;0.57;0.52;;;;;;;6.32;39.21;98839.72;5055054;28;20053;-64
2022/04/29 09:08:16;;;;;;;0.20;0.20;;;;;;;6.32;39.16;98842.44;5061242;28;20135;-64
2022/04/29 09:10:56;;;;;;;2.35;1.33;;;;;;;6.38;39.16;98843.53;5054335;28;20461;-64
2022/04/29 09:13:34;;;;;;;0.85;0.85;;;;;;;6.38;39.04;98838.06;5039876;28;20059;-65
2022/04/29 09:16:05;;;;;;;0.20;0.20;;;;;;;6.44;38.96;98844.59;5060208;28;20059;-64
2022/04/29 09:18:53;;;;;;;0.20;0.20;;;;;;;6.48;38.82;98848.59;5063371;28;20055;-63
2022/04/29 09:21:20;;;;;;;0.20;0.20;;;;;;;6.39;38.93;98844.34;5054590;28;20033;-65
2022/04/29 09:23:54;;;;;;;0.20;0.20;;;;;;;6.41;38.80;98845.00;5058959;28;20446;-63
2022/04/29 09:26:33;;;;;;;;;;;;;;;6.44;38.75;98837.22;5057010;28;20045;-63
2022/04/29 09:29:17;;;;;;;0.40;0.40;;;;;;;6.54;38.58;98841.47;5066853;28;19939;-64
2022/04/29 09:31:52;;;;;;;0.20;0.20;;;;;;;6.62;38.55;98831.16;5057874;28;20029;-64
2022/04/29 09:34:19;;;;;;;0.20;0.20;;;;;;;6.77;38.19;98841.03;5055851;28;20076;-63
2022/04/29 09:36:45;;;;;;;1.40;0.50;;;;;;;6.89;38.25;98838.50;5056313;28;20084;-63
2022/04/29 09:42:04;;;;;;;0.20;0.20;;;;;;;6.96;38.10;98842.94;5064035;28;20101;-65
2022/04/29 09:44:31;;;;;;;0.20;0.20;;;;;;;6.94;38.06;98853.22;5068084;28;20129;-64
2022/04/29 09:47:11;;;;;;;0.20;0.20;;;;;;;6.87;38.22;98843.34;5064334;28;20037;-62
2022/04/29 09:49:37;;;;;;;0.32;0.32;;;;;;;6.91;38.08;98840.00;5064749;28;20119;-65
2022/04/29 09:52:04;;;;;;;0.38;0.38;;;;;;;6.94;38.06;98838.75;5064102;28;20037;-64
2022/04/29 09:54:37;;;;;;;0.40;0.40;;;;;;;7.00;37.97;98846.06;5066333;28;20079;-62
2022/04/29 09:57:15;;;;;;;0.40;0.40;;;;;;;7.08;37.90;98837.69;5059133;28;20097;-63
2022/04/29 09:59:43;;;;;;;0.50;0.50;;;;;;;7.15;37.91;98854.03;5065111;28;20052;-62
2022/04/29 10:02:11;;;;;;;0.20;0.20;;;;;;;7.21;37.83;98836.81;5058107;28;20052;-62
2022/04/29 10:04:40;;;;;;;0.68;0.68;;;;;;;7.25;37.82;98838.06;5048272;28;20049;-63
2022/04/29 10:07:08;;;;;;;0.20;0.20;;;;;;;7.36;37.61;98834.69;5051881;28;20052;-63
2022/04/29 10:09:38;;;;;;;0.40;0.40;;;;;;;7.43;37.57;98842.03;5062690;28;20113;-61
2022/04/29 10:12:09;;;;;;;0.22;0.22;;;;;;;7.48;37.47;98847.69;5068348;28;20041;-63
2022/04/29 10:14:37;;;;;;;0.30;0.30;;;;;;;7.51;37.43;98841.81;5060624;28;20602;-62
2022/04/29 10:22:50;;;;;;;0.28;0.28;;;;;;;7.54;37.50;98844.13;5063091;28;20672;-61
2022/04/29 10:25:17;;;;;;;0.30;0.30;;;;;;;7.60;37.45;98837.78;5062371;28;20048;-64
2022/04/29 10:27:44;;;;;;;0.20;0.20;;;;;;;7.62;37.30;98840.28;5055521;28;20136;-66
2022/04/29 10:30:11;;;;;;;0.55;0.40;;;;;;;7.58;37.38;98842.59;5051375;28;20048;-63
2022/04/29 10:33:00;;;;;;;0.43;0.40;;;;;;;7.56;37.37;98838.44;5059156;28;20049;-63
2022/04/29 10:35:43;;;;;;;0.20;0.20;;;;;;;7.51;37.51;98841.81;5067819;28;20040;-63
2022/04/29 10:38:21;;;;;;;0.40;0.40;;;;;;;7.49;37.45;98838.44;5067229;28;20036;-64
2022/04/29 10:40:50;;;;;;;0.28;0.28;;;;;;;7.58;37.46;98841.78;5061965;28;20099;-63
2022/04/29 10:43:18;;;;;;;0.30;0.30;;;;;;;7.68;37.31;98836.69;5054764;28;20147;-63
2022/04/29 10:46:41;;;;;;;0.20;0.20;;;;;;;7.75;37.13;98832.06;5050359;28;20186;-64
2022/04/29 10:49:30;;;;;;;0.30;0.30;;;;;;;7.71;37.19;98826.19;5009710;28;20046;-62
2022/04/29 10:52:02;;;;;;;0.40;0.40;;;;;;;7.79;37.05;98826.97;5009276;28;20073;-63
2022/04/29 10:54:33;;;;;;;0.30;0.30;;;;;;;7.85;36.89;98839.81;5049682;28;20071;-62
2022/04/29 10:57:04;;;;;;;0.20;0.20;;;;;;;7.92;36.72;98826.09;5060005;28;20516;-63
2022/04/29 10:59:48;;;;;;;0.50;0.50;;;;;;;7.89;36.78;98835.56;5063693;28;20049;-64
2022/04/29 11:02:32;;;;;;;0.25;0.22;;;;;;;7.91;36.78;98840.84;5063354;28;20911;-62
2022/04/29 11:05:00;;;;;;;0.32;0.32;;;;;;;7.93;36.82;98839.53;5059611;28;20448;-61
2022/04/29 11:07:42;;;;;;;0.20;0.20;;;;;;;7.98;36.76;98836.16;5062973;28;20383;-63
2022/04/29 11:10:13;;;;;;;0.22;0.22;;;;;;;7.95;36.77;98831.13;5062604;28;20059;-62
2022/04/29 11:12:40;;;;;;;0.75;0.75;;;;;;;7.95;36.79;98842.91;5056141;28;20313;-63
2022/04/29 11:15:12;;;;;;;0.20;0.20;;;;;;;8.00;36.61;98837.63;5054467;28;20047;-63
2022/04/29 11:17:39;;;;;;;0.20;0.20;;;;;;;8.04;36.30;98838.88;5050956;28;20068;-61
2022/04/29 11:20:25;;;;;;;0.30;0.30;;;;;;;8.05;36.55;98840.56;5065924;28;20041;-62
2022/04/29 11:25:54;;;;;;;0.25;0.25;;;;;;;8.14;36.44;98832.06;5069664;28;20051;-63
2022/04/29 11:28:20;;;;;;;0.30;0.30;;;;;;;8.16;36.46;98819.88;5070521;28;20395;-64
2022/04/29 11:30:48;;;;;;;0.20;0.20;;;;;;;8.21;36.41;98819.22;5063464;28;20048;-64
2022/04/29 11:33:14;;;;;;;0.15;0.15;;;;;;;8.24;36.33;98827.84;5059726;28;20150;-65
2022/04/29 11:35:40;;;;;;;0.22;0.22;;;;;;;8.23;36.39;98814.38;5071076;28;20469;-64
2022/04/29 11:38:10;;;;;;;0.35;0.35;;;;;;;8.31;36.27;98821.47;5070286;28;20408;-66
2022/04/29 11:40:40;;;;;;;0.93;0.43;;;;;;;8.35;36.20;98814.50;5063942;28;20049;-64
2022/04/29 11:43:08;;;;;;;0.90;0.32;;;;;;;8.37;36.30;98821.41;5054111;28;20067;-64
2022/04/29 11:45:33;;;;;;;0.20;0.20;;;;;;;8.40;36.30;98828.34;5065295;28;20086;-63
2022/04/29 11:48:06;;;;;;;0.20;0.20;;;;;;;8.37;36.15;98828.81;5057632;28;20052;-64
2022/04/29 11:50:35;;;;;;;0.77;0.55;;;;;;;8.33;36.27;98822.94;5054038;28;20071;-63
2022/04/29 11:53:09;;;;;;;0.40;0.40;;;;;;;8.29;36.22;98824.44;5054713;28;20131;-63
2022/04/29 11:55:35;;;;;;;2.37;0.90;;;;;;;8.25;36.30;98821.28;5070003;28;20131;-63
2022/04/29 11:58:01;;;;;;;0.50;0.50;;;;;;;8.26;36.34;98827.59;5069963;28;20132;-64
2022/04/29 12:00:29;;;;;;;0.20;0.20;;;;;;;8.29;36.11;98821.69;5070039;28;20127;-62
2022/04/29 12:02:56;;;;;;;0.30;0.30;;;;;;;8.36;36.10;98824.38;5067740;28;20072;-63
2022/04/29 12:05:24;;;;;;;0.35;0.35;;;;;;;8.37;36.05;98828.81;5054870;28;20049;-64
2022/04/29 12:07:50;;;;;;;0.90;0.85;;;;;;;8.30;36.17;98828.00;5062597;28;20508;-67
2022/04/29 12:10:22;;;;;;;0.40;0.40;;;;;;;8.22;36.22;98823.63;5054390;28;20124;-64